sensor_id;sensor_type;location;lat;lon;timestamp;pressure;altitude;pressure_sealevel;temperature;humidity
42247;BME280;27913;42.722;23.268;2023-03-26T00:04:39;94438.88;;;9.00;79.66
42247;BME280;27913;42.722;23.268;2023-03-26T00:07:06;94458.38;;;9.19;79.40
42247;BME280;27913;42.722;23.268;2023-03-26T00:09:34;94446.63;;;9.08;79.29
42247;BME280;27913;42.722;23.268;2023-03-26T00:12:00;94442.19;;;9.09;78.99
42247;BME280;27913;42.722;23.268;2023-03-26T00:14:26;94527.94;;;9.65;79.28
42247;BME280;27913;42.722;23.268;2023-03-26T00:16:53;94426.41;;;9.02;78.68
42247;BME280;27913;42.722;23.268;2023-03-26T00:19:18;94474.72;;;9.43;78.77
42247;BME280;27913;42.722;23.268;2023-03-26T00:21:44;94526.56;;;9.70;78.96
42247;BME280;27913;42.722;23.268;2023-03-26T00:24:12;94492.13;;;9.58;78.54
42247;BME280;27913;42.722;23.268;2023-03-26T00:26:39;94522.63;;;9.87;78.17
42247;BME280;27913;42.722;23.268;2023-03-26T00:29:06;94502.16;;;9.76;78.11
42247;BME280;27913;42.722;23.268;2023-03-26T00:31:34;94486.63;;;9.81;78.00
42247;BME280;27913;42.722;23.268;2023-03-26T00:34:02;94457.44;;;9.62;77.50
42247;BME280;27913;42.722;23.268;2023-03-26T00:36:30;94519.47;;;10.06;77.68
42247;BME280;27913;42.722;23.268;2023-03-26T00:38:55;94526.72;;;10.03;77.78
42247;BME280;27913;42.722;23.268;2023-03-26T00:41:22;94531.84;;;10.12;77.40
42247;BME280;27913;42.722;23.268;2023-03-26T00:43:54;94531.63;;;10.13;77.37
42247;BME280;27913;42.722;23.268;2023-03-26T00:46:21;94385.75;;;9.20;77.06
42247;BME280;27913;42.722;23.268;2023-03-26T00:48:47;94489.25;;;9.81;77.33
42247;BME280;27913;42.722;23.268;2023-03-26T00:51:14;94528.75;;;10.01;77.38
42247;BME280;27913;42.722;23.268;2023-03-26T00:53:40;94518.84;;;10.03;76.85
42247;BME280;27913;42.722;23.268;2023-03-26T00:56:07;94422.13;;;9.29;77.25
42247;BME280;27913;42.722;23.268;2023-03-26T00:58:34;94519.19;;;9.87;77.25
42247;BME280;27913;42.722;23.268;2023-03-26T01:01:01;94486.56;;;9.68;77.54
42247;BME280;27913;42.722;23.268;2023-03-26T01:03:29;94388.53;;;9.11;76.88
42247;BME280;27913;42.722;23.268;2023-03-26T01:06:01;94492.84;;;9.73;77.02
42247;BME280;27913;42.722;23.268;2023-03-26T01:08:40;94501.91;;;9.71;77.31
42247;BME280;27913;42.722;23.268;2023-03-26T01:11:12;94529.63;;;9.73;77.51
42247;BME280;27913;42.722;23.268;2023-03-26T01:13:43;94527.34;;;9.70;77.39
42247;BME280;27913;42.722;23.268;2023-03-26T01:18:46;94542.25;;;9.63;77.55
42247;BME280;27913;42.722;23.268;2023-03-26T01:21:13;94551.16;;;9.62;77.47
42247;BME280;27913;42.722;23.268;2023-03-26T01:23:54;94505.72;;;9.33;77.61
42247;BME280;27913;42.722;23.268;2023-03-26T01:26:39;94532.66;;;9.41;77.89
42247;BME280;27913;42.722;23.268;2023-03-26T01:29:15;94511.41;;;9.36;77.61
42247;BME280;27913;42.722;23.268;2023-03-26T01:39:54;94542.09;;;9.64;78.60
42247;BME280;27913;42.722;23.268;2023-03-26T01:42:36;94432.13;;;8.84;78.84
42247;BME280;27913;42.722;23.268;2023-03-26T01:45:15;94550.13;;;9.63;78.80
42247;BME280;27913;42.722;23.268;2023-03-26T01:47:44;94511.03;;;9.39;78.84
42247;BME280;27913;42.722;23.268;2023-03-26T01:50:10;94551.78;;;9.64;79.20
42247;BME280;27913;42.722;23.268;2023-03-26T01:52:36;94517.72;;;9.49;78.99
42247;BME280;27913;42.722;23.268;2023-03-26T01:55:03;94489.31;;;9.24;80.24
42247;BME280;27913;42.722;23.268;2023-03-26T01:57:35;94490.03;;;9.11;81.23
42247;BME280;27913;42.722;23.268;2023-03-26T02:00:09;94518.38;;;9.22;81.45
42247;BME280;27913;42.722;23.268;2023-03-26T02:05:21;94541.81;;;9.24;82.01
42247;BME280;27913;42.722;23.268;2023-03-26T02:07:58;94537.91;;;9.20;82.56
42247;BME280;27913;42.722;23.268;2023-03-26T02:10:28;94411.66;;;8.28;82.78
42247;BME280;27913;42.722;23.268;2023-03-26T02:12:55;94392.63;;;8.19;82.51
42247;BME280;27913;42.722;23.268;2023-03-26T02:15:22;94412.28;;;8.30;82.45
42247;BME280;27913;42.722;23.268;2023-03-26T02:17:48;94557.72;;;9.22;82.51
42247;BME280;27913;42.722;23.268;2023-03-26T02:20:14;94553.53;;;9.28;82.47
42247;BME280;27913;42.722;23.268;2023-03-26T02:22:43;94553.16;;;9.31;82.32
42247;BME280;27913;42.722;23.268;2023-03-26T02:25:19;94503.22;;;8.96;82.46
42247;BME280;27913;42.722;23.268;2023-03-26T02:27:46;94553.03;;;9.17;83.16
42247;BME280;27913;42.722;23.268;2023-03-26T02:30:18;94507.94;;;9.07;82.81
42247;BME280;27913;42.722;23.268;2023-03-26T02:32:44;94559.16;;;9.25;83.16
42247;BME280;27913;42.722;23.268;2023-03-26T02:35:11;94555.53;;;9.26;83.03
42247;BME280;27913;42.722;23.268;2023-03-26T02:37:38;94521.31;;;9.12;82.73
42247;BME280;27913;42.722;23.268;2023-03-26T02:40:04;94563.66;;;9.31;82.97
42247;BME280;27913;42.722;23.268;2023-03-26T02:42:35;94424.53;;;8.45;82.88
42247;BME280;27913;42.722;23.268;2023-03-26T02:45:00;94432.25;;;8.31;83.33
42247;BME280;27913;42.722;23.268;2023-03-26T02:47:26;94576.78;;;9.09;84.46
42247;BME280;27913;42.722;23.268;2023-03-26T02:49:52;94557.69;;;8.93;84.77
42247;BME280;27913;42.722;23.268;2023-03-26T02:52:18;94576.09;;;9.00;84.63
42247;BME280;27913;42.722;23.268;2023-03-26T02:54:43;94543.19;;;8.76;84.94
42247;BME280;27913;42.722;23.268;2023-03-26T02:57:09;94571.84;;;8.77;85.39
42247;BME280;27913;42.722;23.268;2023-03-26T02:59:35;94588.84;;;8.81;85.63
42247;BME280;27913;42.722;23.268;2023-03-26T03:02:01;94598.25;;;8.76;85.58
42247;BME280;27913;42.722;23.268;2023-03-26T03:04:26;94590.31;;;8.69;85.96
42247;BME280;27913;42.722;23.268;2023-03-26T03:06:52;94584.00;;;8.63;86.20
42247;BME280;27913;42.722;23.268;2023-03-26T03:09:22;94464.53;;;7.80;85.63
42247;BME280;27913;42.722;23.268;2023-03-26T03:11:47;94590.88;;;8.64;85.80
42247;BME280;27913;42.722;23.268;2023-03-26T03:14:13;94600.72;;;8.62;85.78
42247;BME280;27913;42.722;23.268;2023-03-26T03:16:38;94594.66;;;8.62;85.88
42247;BME280;27913;42.722;23.268;2023-03-26T03:19:04;94555.66;;;8.37;85.78
42247;BME280;27913;42.722;23.268;2023-03-26T03:21:30;94601.25;;;8.73;85.33
42247;BME280;27913;42.722;23.268;2023-03-26T03:23:56;94582.31;;;8.55;84.51
42247;BME280;27913;42.722;23.268;2023-03-26T03:26:24;94584.94;;;8.55;84.36
42247;BME280;27913;42.722;23.268;2023-03-26T03:28:55;94606.22;;;8.67;84.30
42247;BME280;27913;42.722;23.268;2023-03-26T03:31:22;94607.78;;;8.62;84.58
42247;BME280;27913;42.722;23.268;2023-03-26T03:33:49;94591.22;;;8.61;84.61
42247;BME280;27913;42.722;23.268;2023-03-26T03:36:17;94606.34;;;8.59;84.76
42247;BME280;27913;42.722;23.268;2023-03-26T03:38:44;94603.53;;;8.61;84.74
42247;BME280;27913;42.722;23.268;2023-03-26T03:41:09;94593.06;;;8.61;84.51
42247;BME280;27913;42.722;23.268;2023-03-26T03:43:35;94543.28;;;8.30;84.63
42247;BME280;27913;42.722;23.268;2023-03-26T03:46:01;94597.66;;;8.58;84.56
42247;BME280;27913;42.722;23.268;2023-03-26T03:48:27;94599.09;;;8.61;84.85
42247;BME280;27913;42.722;23.268;2023-03-26T03:50:53;94459.38;;;7.71;84.60
42247;BME280;27913;42.722;23.268;2023-03-26T03:53:20;94453.00;;;7.59;84.87
42247;BME280;27913;42.722;23.268;2023-03-26T03:55:46;94466.72;;;7.61;85.38
42247;BME280;27913;42.722;23.268;2023-03-26T03:58:21;94613.81;;;8.47;85.97
42247;BME280;27913;42.722;23.268;2023-03-26T04:00:48;94608.31;;;8.42;86.01
42247;BME280;27913;42.722;23.268;2023-03-26T04:03:14;94608.06;;;8.37;86.14
42247;BME280;27913;42.722;23.268;2023-03-26T04:05:39;94615.84;;;8.45;86.22
42247;BME280;27913;42.722;23.268;2023-03-26T04:08:05;94589.44;;;8.31;85.98
42247;BME280;27913;42.722;23.268;2023-03-26T04:10:31;94521.13;;;7.81;85.83
42247;BME280;27913;42.722;23.268;2023-03-26T04:12:57;94634.16;;;8.60;85.73
42247;BME280;27913;42.722;23.268;2023-03-26T04:15:22;94643.56;;;8.69;85.30
42247;BME280;27913;42.722;23.268;2023-03-26T04:17:48;94643.19;;;8.73;85.26
42247;BME280;27913;42.722;23.268;2023-03-26T04:20:13;94601.66;;;8.39;85.40
42247;BME280;27913;42.722;23.268;2023-03-26T04:22:41;94649.53;;;8.63;85.88
42247;BME280;27913;42.722;23.268;2023-03-26T04:25:08;94588.72;;;8.22;85.52
42247;BME280;27913;42.722;23.268;2023-03-26T04:27:34;94517.53;;;7.67;85.50
42247;BME280;27913;42.722;23.268;2023-03-26T04:30:01;94638.16;;;8.41;85.39
42247;BME280;27913;42.722;23.268;2023-03-26T04:32:28;94665.69;;;8.67;85.24
42247;BME280;27913;42.722;23.268;2023-03-26T04:34:59;94667.44;;;8.60;85.51
42247;BME280;27913;42.722;23.268;2023-03-26T04:37:27;94640.31;;;8.37;85.51
42247;BME280;27913;42.722;23.268;2023-03-26T04:39:59;94667.41;;;8.44;85.29
42247;BME280;27913;42.722;23.268;2023-03-26T04:42:24;94643.84;;;8.44;84.91
42247;BME280;27913;42.722;23.268;2023-03-26T04:44:50;94687.03;;;8.64;84.07
42247;BME280;27913;42.722;23.268;2023-03-26T04:47:19;94560.22;;;7.82;83.65
42247;BME280;27913;42.722;23.268;2023-03-26T04:49:46;94678.63;;;8.53;83.68
42247;BME280;27913;42.722;23.268;2023-03-26T04:52:12;94663.34;;;8.42;83.28
42247;BME280;27913;42.722;23.268;2023-03-26T04:54:38;94701.06;;;8.71;83.05
42247;BME280;27913;42.722;23.268;2023-03-26T04:57:14;94700.16;;;8.64;82.50
42247;BME280;27913;42.722;23.268;2023-03-26T04:59:42;94696.72;;;8.63;82.37
42247;BME280;27913;42.722;23.268;2023-03-26T05:02:10;94680.09;;;8.56;81.76
42247;BME280;27913;42.722;23.268;2023-03-26T05:04:37;94695.38;;;8.67;81.84
42247;BME280;27913;42.722;23.268;2023-03-26T05:07:05;94669.41;;;8.57;81.15
42247;BME280;27913;42.722;23.268;2023-03-26T05:09:31;94651.25;;;8.41;81.13
42247;BME280;27913;42.722;23.268;2023-03-26T05:11:57;94712.88;;;8.82;80.93
42247;BME280;27913;42.722;23.268;2023-03-26T05:14:23;94718.66;;;8.77;81.20
42247;BME280;27913;42.722;23.268;2023-03-26T05:16:49;94684.56;;;8.47;81.98
42247;BME280;27913;42.722;23.268;2023-03-26T05:19:17;94589.28;;;7.72;82.93
42247;BME280;27913;42.722;23.268;2023-03-26T05:21:43;94667.59;;;8.28;83.28
42247;BME280;27913;42.722;23.268;2023-03-26T05:24:08;94729.19;;;8.62;83.60
42247;BME280;27913;42.722;23.268;2023-03-26T05:26:34;94696.22;;;8.29;84.25
42247;BME280;27913;42.722;23.268;2023-03-26T05:29:01;94730.78;;;8.48;84.76
42247;BME280;27913;42.722;23.268;2023-03-26T05:31:27;94686.56;;;8.15;85.18
42247;BME280;27913;42.722;23.268;2023-03-26T05:33:55;94612.66;;;7.74;85.17
42247;BME280;27913;42.722;23.268;2023-03-26T05:36:22;94733.75;;;8.45;84.50
42247;BME280;27913;42.722;23.268;2023-03-26T05:38:48;94574.47;;;7.49;84.62
42247;BME280;27913;42.722;23.268;2023-03-26T05:41:15;94600.13;;;7.69;84.15
42247;BME280;27913;42.722;23.268;2023-03-26T05:43:41;94567.88;;;7.54;84.04
42247;BME280;27913;42.722;23.268;2023-03-26T05:46:08;94734.16;;;8.57;84.21
42247;BME280;27913;42.722;23.268;2023-03-26T05:48:33;94706.81;;;8.36;83.85
42247;BME280;27913;42.722;23.268;2023-03-26T05:50:59;94742.81;;;8.57;84.03
42247;BME280;27913;42.722;23.268;2023-03-26T05:53:25;94690.97;;;8.29;83.43
42247;BME280;27913;42.722;23.268;2023-03-26T05:55:51;94667.31;;;8.07;83.80
42247;BME280;27913;42.722;23.268;2023-03-26T05:58:30;94681.59;;;8.20;84.15
42247;BME280;27913;42.722;23.268;2023-03-26T06:01:02;94730.41;;;8.66;83.58
42247;BME280;27913;42.722;23.268;2023-03-26T06:03:35;94606.72;;;7.95;83.63
42247;BME280;27913;42.722;23.268;2023-03-26T06:06:00;94733.50;;;8.85;83.25
42247;BME280;27913;42.722;23.268;2023-03-26T06:08:28;94733.13;;;8.88;82.15
42247;BME280;27913;42.722;23.268;2023-03-26T06:11:02;94731.41;;;8.80;81.21
42247;BME280;27913;42.722;23.268;2023-03-26T06:13:28;94741.44;;;8.77;81.19
42247;BME280;27913;42.722;23.268;2023-03-26T06:15:54;94739.00;;;8.75;81.52
42247;BME280;27913;42.722;23.268;2023-03-26T06:18:22;94735.13;;;8.71;81.92
42247;BME280;27913;42.722;23.268;2023-03-26T06:20:47;94734.03;;;8.80;82.03
42247;BME280;27913;42.722;23.268;2023-03-26T06:23:13;94583.25;;;7.87;81.34
42247;BME280;27913;42.722;23.268;2023-03-26T06:25:38;94591.38;;;7.92;80.63
42247;BME280;27913;42.722;23.268;2023-03-26T06:28:05;94651.34;;;8.32;80.02
42247;BME280;27913;42.722;23.268;2023-03-26T06:30:31;94721.19;;;8.86;79.09
42247;BME280;27913;42.722;23.268;2023-03-26T06:32:57;94694.16;;;8.70;78.55
42247;BME280;27913;42.722;23.268;2023-03-26T06:35:22;94702.13;;;8.77;79.01
42247;BME280;27913;42.722;23.268;2023-03-26T06:37:47;94732.75;;;9.06;78.30
42247;BME280;27913;42.722;23.268;2023-03-26T06:40:13;94589.75;;;8.21;78.09
42247;BME280;27913;42.722;23.268;2023-03-26T06:42:39;94726.19;;;9.17;77.33
42247;BME280;27913;42.722;23.268;2023-03-26T06:45:05;94572.66;;;8.26;77.31
42247;BME280;27913;42.722;23.268;2023-03-26T06:47:30;94733.59;;;9.29;76.65
42247;BME280;27913;42.722;23.268;2023-03-26T06:49:56;94698.53;;;9.15;75.16
42247;BME280;27913;42.722;23.268;2023-03-26T06:52:21;94739.63;;;9.29;74.43
42247;BME280;27913;42.722;23.268;2023-03-26T06:54:47;94607.34;;;8.43;73.73
42247;BME280;27913;42.722;23.268;2023-03-26T06:57:12;94704.66;;;8.85;74.75
42247;BME280;27913;42.722;23.268;2023-03-26T06:59:38;94749.63;;;9.19;74.47
42247;BME280;27913;42.722;23.268;2023-03-26T07:02:03;94748.19;;;9.16;73.77
42247;BME280;27913;42.722;23.268;2023-03-26T07:04:29;94711.41;;;8.94;74.01
42247;BME280;27913;42.722;23.268;2023-03-26T07:06:54;94687.53;;;8.89;73.93
42247;BME280;27913;42.722;23.268;2023-03-26T07:09:20;94595.69;;;8.15;74.00
42247;BME280;27913;42.722;23.268;2023-03-26T07:11:46;94703.72;;;8.93;72.87
42247;BME280;27913;42.722;23.268;2023-03-26T07:14:11;94735.00;;;9.10;73.98
42247;BME280;27913;42.722;23.268;2023-03-26T07:16:37;94708.88;;;9.01;74.18
42247;BME280;27913;42.722;23.268;2023-03-26T07:19:03;94664.88;;;8.81;73.04
42247;BME280;27913;42.722;23.268;2023-03-26T07:21:28;94737.31;;;9.35;72.33
42247;BME280;27913;42.722;23.268;2023-03-26T07:23:54;94683.78;;;9.14;72.25
42247;BME280;27913;42.722;23.268;2023-03-26T07:26:35;94726.56;;;9.51;73.48
42247;BME280;27913;42.722;23.268;2023-03-26T07:29:14;94616.72;;;8.89;72.92
42247;BME280;27913;42.722;23.268;2023-03-26T07:31:54;94728.25;;;9.59;71.96
42247;BME280;27913;42.722;23.268;2023-03-26T07:37:39;94659.31;;;9.28;71.86
42247;BME280;27913;42.722;23.268;2023-03-26T07:40:19;94723.31;;;9.71;71.86
42247;BME280;27913;42.722;23.268;2023-03-26T07:43:08;94700.78;;;9.62;71.10
42247;BME280;27913;42.722;23.268;2023-03-26T07:45:40;94725.28;;;9.91;69.67
42247;BME280;27913;42.722;23.268;2023-03-26T07:48:22;94686.75;;;9.70;69.80
42247;BME280;27913;42.722;23.268;2023-03-26T07:50:55;94573.66;;;8.99;68.51
42247;BME280;27913;42.722;23.268;2023-03-26T07:53:21;94715.19;;;9.95;69.45
42247;BME280;27913;42.722;23.268;2023-03-26T08:01:43;94716.88;;;10.02;68.14
42247;BME280;27913;42.722;23.268;2023-03-26T08:07:07;94608.31;;;9.66;66.85
42247;BME280;27913;42.722;23.268;2023-03-26T08:25:34;94713.31;;;10.46;61.70
42247;BME280;27913;42.722;23.268;2023-03-26T08:30:36;94673.28;;;10.08;62.24
42247;BME280;27913;42.722;23.268;2023-03-26T08:35:35;94613.31;;;9.83;59.68
42247;BME280;27913;42.722;23.268;2023-03-26T08:38:10;94714.44;;;10.58;61.00
42247;BME280;27913;42.722;23.268;2023-03-26T08:51:36;94665.84;;;10.47;56.38
42247;BME280;27913;42.722;23.268;2023-03-26T09:16:58;94705.00;;;11.20;54.31
42247;BME280;27913;42.722;23.268;2023-03-26T09:19:47;94694.47;;;11.27;53.52
42247;BME280;27913;42.722;23.268;2023-03-26T09:27:37;94696.97;;;11.48;52.19
42247;BME280;27913;42.722;23.268;2023-03-26T09:35:51;94665.38;;;11.48;51.47
42247;BME280;27913;42.722;23.268;2023-03-26T09:38:44;94685.25;;;11.65;49.25
42247;BME280;27913;42.722;23.268;2023-03-26T09:46:31;94666.41;;;11.61;49.15
42247;BME280;27913;42.722;23.268;2023-03-26T09:57:00;94617.56;;;11.52;49.93
42247;BME280;27913;42.722;23.268;2023-03-26T10:00:02;94653.81;;;11.83;49.35
42247;BME280;27913;42.722;23.268;2023-03-26T10:05:21;94583.75;;;11.42;48.11
42247;BME280;27913;42.722;23.268;2023-03-26T10:10:51;94626.06;;;11.74;47.27
42247;BME280;27913;42.722;23.268;2023-03-26T10:16:19;94593.84;;;11.72;46.15
42247;BME280;27913;42.722;23.268;2023-03-26T10:19:22;94629.09;;;12.05;45.93
42247;BME280;27913;42.722;23.268;2023-03-26T10:24:50;94598.25;;;11.99;44.54
42247;BME280;27913;42.722;23.268;2023-03-26T10:27:36;94575.56;;;11.98;45.05
42247;BME280;27913;42.722;23.268;2023-03-26T10:35:58;94605.88;;;12.54;42.20
42247;BME280;27913;42.722;23.268;2023-03-26T10:43:57;94530.53;;;12.19;40.54
42247;BME280;27913;42.722;23.268;2023-03-26T10:46:51;94580.03;;;12.70;40.35
42247;BME280;27913;42.722;23.268;2023-03-26T10:52:11;94515.31;;;12.22;39.79
42247;BME280;27913;42.722;23.268;2023-03-26T11:00:28;94573.28;;;12.74;37.41
42247;BME280;27913;42.722;23.268;2023-03-26T11:05:45;94567.16;;;12.87;37.94
42247;BME280;27913;42.722;23.268;2023-03-26T11:08:19;94562.97;;;13.05;37.95
42247;BME280;27913;42.722;23.268;2023-03-26T11:11:05;94576.72;;;13.14;37.65
42247;BME280;27913;42.722;23.268;2023-03-26T11:14:16;94574.75;;;13.02;37.47
42247;BME280;27913;42.722;23.268;2023-03-26T11:28:04;94541.31;;;13.22;36.75
42247;BME280;27913;42.722;23.268;2023-03-26T11:30:53;94535.59;;;13.25;36.77
42247;BME280;27913;42.722;23.268;2023-03-26T11:33:28;94542.69;;;13.31;36.86
42247;BME280;27913;42.722;23.268;2023-03-26T11:36:01;94491.34;;;13.01;36.38
42247;BME280;27913;42.722;23.268;2023-03-26T11:38:32;94532.56;;;13.28;35.60
42247;BME280;27913;42.722;23.268;2023-03-26T11:41:03;94542.72;;;13.50;36.75
42247;BME280;27913;42.722;23.268;2023-03-26T11:43:35;94527.75;;;13.44;35.13
42247;BME280;27913;42.722;23.268;2023-03-26T11:46:03;94398.63;;;12.65;35.11
42247;BME280;27913;42.722;23.268;2023-03-26T11:48:49;94387.38;;;12.51;35.03
42247;BME280;27913;42.722;23.268;2023-03-26T11:51:28;94505.22;;;13.41;34.92
42247;BME280;27913;42.722;23.268;2023-03-26T11:53:55;94455.47;;;13.19;34.09
42247;BME280;27913;42.722;23.268;2023-03-26T12:01:27;94430.47;;;13.40;34.03
42247;BME280;27913;42.722;23.268;2023-03-26T12:04:09;94430.38;;;13.54;32.88
42247;BME280;27913;42.722;23.268;2023-03-26T12:06:37;94370.81;;;13.33;33.14
42247;BME280;27913;42.722;23.268;2023-03-26T12:09:03;94471.81;;;14.10;32.76
42247;BME280;27913;42.722;23.268;2023-03-26T12:11:29;94420.97;;;13.77;33.83
42247;BME280;27913;42.722;23.268;2023-03-26T12:14:00;94478.97;;;14.40;32.36
42247;BME280;27913;42.722;23.268;2023-03-26T12:16:28;94472.47;;;14.55;32.37
42247;BME280;27913;42.722;23.268;2023-03-26T12:21:24;94455.34;;;14.57;31.01
42247;BME280;27913;42.722;23.268;2023-03-26T12:23:54;94420.22;;;14.50;32.64
42247;BME280;27913;42.722;23.268;2023-03-26T12:26:30;94382.47;;;14.43;33.23
42247;BME280;27913;42.722;23.268;2023-03-26T12:29:05;94402.72;;;14.92;32.74
42247;BME280;27913;42.722;23.268;2023-03-26T12:31:44;94380.25;;;14.70;30.53
42247;BME280;27913;42.722;23.268;2023-03-26T12:34:19;94428.31;;;15.10;28.55
42247;BME280;27913;42.722;23.268;2023-03-26T12:36:53;94335.81;;;14.60;28.58
42247;BME280;27913;42.722;23.268;2023-03-26T12:39:49;94358.31;;;14.82;28.03
42247;BME280;27913;42.722;23.268;2023-03-26T12:42:32;94402.75;;;15.16;28.37
42247;BME280;27913;42.722;23.268;2023-03-26T12:44:57;94421.63;;;15.43;28.25
42247;BME280;27913;42.722;23.268;2023-03-26T12:47:28;94405.97;;;15.42;27.41
42247;BME280;27913;42.722;23.268;2023-03-26T12:49:57;94416.16;;;15.62;26.38
42247;BME280;27913;42.722;23.268;2023-03-26T13:14:06;94368.03;;;15.65;24.18
42247;BME280;27913;42.722;23.268;2023-03-26T13:31:20;94387.50;;;16.12;24.84
42247;BME280;27913;42.722;23.268;2023-03-26T13:42:17;94386.44;;;16.42;24.89
42247;BME280;27913;42.722;23.268;2023-03-26T13:44:59;94324.84;;;15.82;24.57
42247;BME280;27913;42.722;23.268;2023-03-26T13:47:30;94392.16;;;16.22;25.56
42247;BME280;27913;42.722;23.268;2023-03-26T13:50:18;94281.03;;;15.62;25.70
42247;BME280;27913;42.722;23.268;2023-03-26T14:03:26;94383.97;;;16.24;24.17
42247;BME280;27913;42.722;23.268;2023-03-26T14:05:56;94372.84;;;16.39;23.53
42247;BME280;27913;42.722;23.268;2023-03-26T14:08:31;94366.69;;;16.21;23.67
42247;BME280;27913;42.722;23.268;2023-03-26T14:11:24;94366.69;;;16.21;24.19
42247;BME280;27913;42.722;23.268;2023-03-26T14:14:03;94344.81;;;16.14;24.56
42247;BME280;27913;42.722;23.268;2023-03-26T14:16:35;94341.78;;;16.39;24.43
42247;BME280;27913;42.722;23.268;2023-03-26T14:41:57;94300.47;;;15.68;25.17
42247;BME280;27913;42.722;23.268;2023-03-26T14:47:21;94323.31;;;15.98;24.81
42247;BME280;27913;42.722;23.268;2023-03-26T15:01:19;94314.97;;;16.06;24.17
42247;BME280;27913;42.722;23.268;2023-03-26T15:03:57;94326.81;;;16.16;25.29
42247;BME280;27913;42.722;23.268;2023-03-26T15:43:12;94341.19;;;16.20;27.78
42247;BME280;27913;42.722;23.268;2023-03-26T15:45:48;94339.19;;;16.10;27.97
42247;BME280;27913;42.722;23.268;2023-03-26T15:51:21;94342.81;;;16.21;28.29
42247;BME280;27913;42.722;23.268;2023-03-26T15:54:34;94242.97;;;15.68;28.42
42247;BME280;27913;42.722;23.268;2023-03-26T15:59:57;94330.25;;;16.16;27.80
42247;BME280;27913;42.722;23.268;2023-03-26T16:02:36;94323.84;;;16.29;27.54
42247;BME280;27913;42.722;23.268;2023-03-26T16:10:52;94325.25;;;15.74;28.94
42247;BME280;27913;42.722;23.268;2023-03-26T16:13:33;94346.72;;;15.60;29.39
42247;BME280;27913;42.722;23.268;2023-03-26T16:18:38;94343.31;;;15.36;29.85
42247;BME280;27913;42.722;23.268;2023-03-26T16:26:36;94334.72;;;14.92;30.03
42247;BME280;27913;42.722;23.268;2023-03-26T16:32:21;94358.31;;;14.94;30.55
42247;BME280;27913;42.722;23.268;2023-03-26T16:34:56;94328.94;;;14.71;30.80
42247;BME280;27913;42.722;23.268;2023-03-26T16:45:27;94344.91;;;14.77;31.30
42247;BME280;27913;42.722;23.268;2023-03-26T16:56:00;94357.06;;;14.84;31.32
42247;BME280;27913;42.722;23.268;2023-03-26T16:58:29;94332.16;;;14.73;31.70
42247;BME280;27913;42.722;23.268;2023-03-26T17:12:11;94340.22;;;14.67;32.46
42247;BME280;27913;42.722;23.268;2023-03-26T17:17:29;94367.84;;;14.83;32.98
42247;BME280;27913;42.722;23.268;2023-03-26T17:20:26;94368.06;;;14.81;33.57
42247;BME280;27913;42.722;23.268;2023-03-26T17:26:10;94366.09;;;14.77;33.63
42247;BME280;27913;42.722;23.268;2023-03-26T17:31:31;94343.38;;;14.45;32.89
42247;BME280;27913;42.722;23.268;2023-03-26T17:37:09;94369.53;;;14.65;33.67
42247;BME280;27913;42.722;23.268;2023-03-26T17:44:53;94353.28;;;14.49;34.20
42247;BME280;27913;42.722;23.268;2023-03-26T17:50:18;94298.25;;;14.16;34.31
42247;BME280;27913;42.722;23.268;2023-03-26T17:53:00;94363.66;;;14.51;34.21
42247;BME280;27913;42.722;23.268;2023-03-26T17:55:36;94365.72;;;14.49;34.21
42247;BME280;27913;42.722;23.268;2023-03-26T17:58:05;94259.31;;;13.80;34.16
42247;BME280;27913;42.722;23.268;2023-03-26T18:00:34;94364.41;;;14.40;34.49
42247;BME280;27913;42.722;23.268;2023-03-26T18:03:06;94334.81;;;14.19;34.87
42247;BME280;27913;42.722;23.268;2023-03-26T18:05:37;94362.81;;;14.27;34.90
42247;BME280;27913;42.722;23.268;2023-03-26T18:08:40;94307.16;;;13.91;35.40
42247;BME280;27913;42.722;23.268;2023-03-26T18:18:50;94325.66;;;13.91;36.53
42247;BME280;27913;42.722;23.268;2023-03-26T18:21:32;94348.00;;;14.07;36.89
42247;BME280;27913;42.722;23.268;2023-03-26T18:24:00;94353.16;;;14.01;36.84
42247;BME280;27913;42.722;23.268;2023-03-26T18:26:51;94348.13;;;14.00;37.07
42247;BME280;27913;42.722;23.268;2023-03-26T18:29:27;94342.25;;;13.98;37.35
42247;BME280;27913;42.722;23.268;2023-03-26T18:31:58;94347.75;;;13.96;37.71
42247;BME280;27913;42.722;23.268;2023-03-26T18:34:27;94338.41;;;13.94;37.70
42247;BME280;27913;42.722;23.268;2023-03-26T18:37:16;94328.03;;;13.80;37.90
42247;BME280;27913;42.722;23.268;2023-03-26T18:40:15;94318.00;;;13.70;37.89
42247;BME280;27913;42.722;23.268;2023-03-26T18:42:52;94340.44;;;13.80;38.17
42247;BME280;27913;42.722;23.268;2023-03-26T18:47:50;94326.44;;;13.60;38.16
42247;BME280;27913;42.722;23.268;2023-03-26T18:50:22;94297.31;;;13.48;38.43
42247;BME280;27913;42.722;23.268;2023-03-26T18:52:49;94328.31;;;13.60;38.50
42247;BME280;27913;42.722;23.268;2023-03-26T18:55:15;94325.72;;;13.53;38.79
42247;BME280;27913;42.722;23.268;2023-03-26T18:57:41;94267.13;;;13.07;38.82
42247;BME280;27913;42.722;23.268;2023-03-26T19:00:19;94288.75;;;13.15;38.75
42247;BME280;27913;42.722;23.268;2023-03-26T19:02:48;94314.56;;;13.32;38.96
42247;BME280;27913;42.722;23.268;2023-03-26T19:05:16;94260.75;;;12.96;38.89
42247;BME280;27913;42.722;23.268;2023-03-26T19:07:43;94296.00;;;13.20;39.41
42247;BME280;27913;42.722;23.268;2023-03-26T19:10:16;94214.34;;;12.69;39.39
42247;BME280;27913;42.722;23.268;2023-03-26T19:12:53;94281.00;;;13.21;39.48
42247;BME280;27913;42.722;23.268;2023-03-26T19:15:20;94289.50;;;13.23;39.17
42247;BME280;27913;42.722;23.268;2023-03-26T19:17:52;94298.66;;;13.20;39.33
42247;BME280;27913;42.722;23.268;2023-03-26T19:20:27;94275.91;;;13.00;39.56
42247;BME280;27913;42.722;23.268;2023-03-26T19:22:56;94185.63;;;12.42;39.42
42247;BME280;27913;42.722;23.268;2023-03-26T19:27:55;94290.38;;;12.98;40.59